createdAt,value
2018-04-07T00:01:36.547Z,9.13
2018-04-07T00:04:06.461Z,12.53
2018-04-07T00:06:36.781Z,9.77
2018-04-07T00:09:06.046Z,9.67
2018-04-07T00:11:36.294Z,8.47
2018-04-07T00:14:05.405Z,9.07
2018-04-07T00:16:34.901Z,9.13
2018-04-07T00:19:04.948Z,9.07
2018-04-07T00:21:34.294Z,9.60
2018-04-07T00:24:04.111Z,8.20
2018-04-07T00:26:33.905Z,7.87
2018-04-07T00:29:03.467Z,7.93
2018-04-07T00:31:33.297Z,7.97
2018-04-07T00:34:03.007Z,8.83
2018-04-07T00:36:32.491Z,9.60
2018-04-07T00:39:02.507Z,11.73
2018-04-07T00:41:32.237Z,10.57
2018-04-07T00:44:01.986Z,8.50
2018-04-07T00:46:31.788Z,8.40
2018-04-07T00:49:01.806Z,9.90
2018-04-07T00:51:31.721Z,8.87
2018-04-07T00:54:01.686Z,8.43
2018-04-07T00:57:40.137Z,7.83
2018-04-07T01:00:10.620Z,8.37
2018-04-07T01:02:41.139Z,8.30
2018-04-07T01:05:11.661Z,10.90
2018-04-07T01:07:41.676Z,10.40
2018-04-07T01:10:12.153Z,8.90
2018-04-07T01:12:42.506Z,10.47
2018-04-07T01:15:12.830Z,9.83
2018-04-07T01:17:43.094Z,9.53
2018-04-07T01:20:13.548Z,8.23
2018-04-07T01:22:43.913Z,7.87
2018-04-07T01:25:14.397Z,10.10
2018-04-07T01:27:44.329Z,9.10
2018-04-07T01:30:14.647Z,8.40
2018-04-07T01:32:44.961Z,8.60
2018-04-07T01:35:15.197Z,8.23
2018-04-07T01:37:45.410Z,6.90
2018-04-07T01:40:16.219Z,7.63
2018-04-07T01:42:46.724Z,10.13
2018-04-07T01:45:17.088Z,8.60
2018-04-07T01:47:47.317Z,9.13
2018-04-07T01:50:17.673Z,11.47
2018-04-07T01:52:47.988Z,11.53
2018-04-07T01:55:18.400Z,13.10
2018-04-07T01:57:48.936Z,9.33
2018-04-07T02:00:18.993Z,8.63
2018-04-07T02:02:49.277Z,8.93
2018-04-07T02:05:19.610Z,8.30
2018-04-07T02:07:49.509Z,8.50
2018-04-07T02:10:19.816Z,9.77
2018-04-07T02:12:49.988Z,8.73
2018-04-07T02:15:20.070Z,8.77
2018-04-07T02:17:50.553Z,8.30
2018-04-07T02:20:21.026Z,9.20
2018-04-07T02:22:51.601Z,8.73
2018-04-07T02:25:22.021Z,8.60
2018-04-07T02:27:52.040Z,10.33
2018-04-07T02:30:22.028Z,8.40
2018-04-07T02:32:52.620Z,9.87
2018-04-07T02:35:23.311Z,10.87
2018-04-07T02:37:54.118Z,14.53
2018-04-07T02:40:24.528Z,10.30
2018-04-07T02:42:55.765Z,9.77
2018-04-07T02:45:25.927Z,11.37
2018-04-07T02:47:56.216Z,8.27
2018-04-07T02:50:26.480Z,10.83
2018-04-07T02:52:56.626Z,10.07
2018-04-07T02:55:26.998Z,9.90
2018-04-07T02:57:58.022Z,10.10
2018-04-07T03:00:28.259Z,9.20
2018-04-07T03:02:58.529Z,10.97
2018-04-07T03:05:28.820Z,12.87
2018-04-07T03:07:58.998Z,9.07
2018-04-07T03:10:29.858Z,10.37
2018-04-07T03:12:59.982Z,9.93
2018-04-07T03:15:30.013Z,11.27
2018-04-07T03:18:00.863Z,12.70
2018-04-07T03:20:31.485Z,10.53
2018-04-07T03:23:02.488Z,10.83
2018-04-07T03:25:32.769Z,11.27
2018-04-07T03:28:03.221Z,13.00
2018-04-07T03:30:32.947Z,12.00
2018-04-07T03:33:03.759Z,11.37
2018-04-07T03:35:34.176Z,13.33
2018-04-07T03:38:04.867Z,11.00
2018-04-07T03:40:35.651Z,9.67
2018-04-07T03:43:05.964Z,9.03
2018-04-07T03:45:36.136Z,10.40
2018-04-07T03:48:06.256Z,10.13
2018-04-07T03:50:36.414Z,10.40
2018-04-07T03:53:07.764Z,8.60
2018-04-07T03:55:38.121Z,9.43
2018-04-07T03:58:07.995Z,10.50
2018-04-07T04:00:38.288Z,10.93
2018-04-07T04:03:08.861Z,8.27
2018-04-07T04:05:39.420Z,8.93
2018-04-07T04:08:09.742Z,8.90
2018-04-07T04:10:39.480Z,9.30
2018-04-07T04:13:09.276Z,10.80
2018-04-07T04:15:39.066Z,8.40
2018-04-07T04:18:08.898Z,8.13
2018-04-07T04:20:38.660Z,8.50
2018-04-07T04:23:08.470Z,8.47
2018-04-07T04:25:38.286Z,8.63
2018-04-07T04:28:08.144Z,8.63
2018-04-07T04:30:37.884Z,9.80
2018-04-07T04:33:07.588Z,8.23
2018-04-07T04:35:37.341Z,10.57
2018-04-07T04:38:07.237Z,8.23
2018-04-07T04:40:37.020Z,10.23
2018-04-07T04:43:06.839Z,8.20
2018-04-07T04:45:36.611Z,10.27
2018-04-07T04:48:06.456Z,10.50
2018-04-07T04:50:36.303Z,10.43
2018-04-07T04:53:06.066Z,14.73
2018-04-07T04:55:35.921Z,10.27
2018-04-07T04:58:05.685Z,10.60
2018-04-07T05:00:35.484Z,10.87
2018-04-07T05:03:05.254Z,11.70
2018-04-07T05:05:35.028Z,12.80
2018-04-07T05:08:04.890Z,12.30
2018-04-07T05:10:34.607Z,10.90
2018-04-07T05:13:04.405Z,12.23
2018-04-07T05:15:34.260Z,10.67
2018-04-07T05:18:04.030Z,13.70
2018-04-07T05:20:33.849Z,13.40
2018-04-07T05:23:03.617Z,13.50
2018-04-07T05:25:33.424Z,11.50
2018-04-07T05:28:03.206Z,14.50
2018-04-07T05:30:32.937Z,13.53
2018-04-07T05:33:02.747Z,12.80
2018-04-07T05:35:32.638Z,13.63
2018-04-07T05:38:02.434Z,12.97
2018-04-07T05:40:32.143Z,9.87
2018-04-07T05:43:01.983Z,10.53
2018-04-07T05:45:31.837Z,9.90
2018-04-07T05:48:01.612Z,9.00
2018-04-07T05:50:31.330Z,10.57
2018-04-07T05:53:01.063Z,9.83
2018-04-07T05:55:30.809Z,10.27
2018-04-07T05:58:00.641Z,10.77
2018-04-07T06:00:30.413Z,10.13
2018-04-07T06:03:00.231Z,10.80
2018-04-07T06:05:30.025Z,9.63
2018-04-07T06:07:59.818Z,9.53
2018-04-07T06:10:29.597Z,9.40
2018-04-07T06:12:59.317Z,9.60
2018-04-07T06:15:29.086Z,9.10
2018-04-07T06:17:58.893Z,9.13
2018-04-07T06:27:16.107Z,10.40
2018-04-07T06:29:45.844Z,10.23
2018-04-07T06:32:15.555Z,8.50
2018-04-07T06:34:45.343Z,9.33
2018-04-07T06:37:15.235Z,9.70
2018-04-07T06:39:44.926Z,12.23
2018-04-07T06:42:14.734Z,11.17
2018-04-07T06:44:44.543Z,13.33
2018-04-07T06:47:14.369Z,10.97
2018-04-07T06:49:44.073Z,12.97
2018-04-07T06:52:13.797Z,10.80
2018-04-07T06:54:43.579Z,13.07
2018-04-07T06:57:13.396Z,12.00
2018-04-07T06:59:43.255Z,14.07
2018-04-07T07:02:13.067Z,13.73
2018-04-07T07:04:42.858Z,13.50
2018-04-07T07:07:12.655Z,12.70
2018-04-07T07:09:42.359Z,11.30
2018-04-07T07:12:12.105Z,12.53
2018-04-07T07:14:41.939Z,12.17
2018-04-07T07:17:11.736Z,11.27
2018-04-07T07:19:41.542Z,13.30
2018-04-07T07:22:11.369Z,12.90
2018-04-07T07:24:41.242Z,13.47
2018-04-07T07:27:11.057Z,13.43
2018-04-07T07:29:40.776Z,11.90
2018-04-07T07:32:10.518Z,13.77
2018-04-07T07:34:40.309Z,13.83
2018-04-07T07:37:10.145Z,13.80
2018-04-07T07:39:39.885Z,10.93
2018-04-07T07:42:09.650Z,10.13
2018-04-07T07:44:39.527Z,12.10
2018-04-07T07:47:09.316Z,11.97
2018-04-07T07:49:39.062Z,10.57
2018-04-07T07:52:08.763Z,10.60
2018-04-07T07:54:38.575Z,10.87
2018-04-07T07:57:08.405Z,11.67
2018-04-07T07:59:38.150Z,10.53
2018-04-07T08:02:07.914Z,9.90
2018-04-07T08:04:37.722Z,9.73
2018-04-07T08:07:07.519Z,10.07
2018-04-07T08:09:37.291Z,10.23
2018-04-07T08:12:07.035Z,8.13
2018-04-07T08:14:36.751Z,9.13
2018-04-07T08:17:06.557Z,12.07
2018-04-07T08:19:36.352Z,8.70
2018-04-07T08:22:06.175Z,9.10
2018-04-07T08:24:35.991Z,8.03
2018-04-07T08:27:05.879Z,8.37
2018-04-07T08:29:35.794Z,6.80
2018-04-07T08:32:05.595Z,9.10
2018-04-07T08:34:35.478Z,8.30
2018-04-07T08:37:05.249Z,9.43
2018-04-07T08:39:35.079Z,9.27
2018-04-07T08:42:04.922Z,9.80
2018-04-07T08:44:34.726Z,8.63
2018-04-07T08:47:04.555Z,7.77
2018-04-07T08:49:34.281Z,11.07
2018-04-07T08:52:04.043Z,8.77
2018-04-07T08:54:33.862Z,7.57
2018-04-07T08:57:03.701Z,9.83
2018-04-07T08:59:33.489Z,8.20
2018-04-07T09:02:03.360Z,9.27
2018-04-07T09:04:33.284Z,8.43
2018-04-07T09:07:03.192Z,10.30
2018-04-07T09:09:32.999Z,9.03
2018-04-07T09:12:02.812Z,7.90
2018-04-07T09:14:32.725Z,9.90
2018-04-07T09:17:02.750Z,9.07
2018-04-07T09:19:32.766Z,8.80
2018-04-07T09:22:02.674Z,9.03
2018-04-07T09:24:33.590Z,7.00
2018-04-07T09:27:03.638Z,5.80
2018-04-07T09:29:33.447Z,8.47
2018-04-07T09:32:03.251Z,7.17
2018-04-07T09:34:34.003Z,10.20
2018-04-07T09:37:03.784Z,6.90
2018-04-07T09:39:33.497Z,7.13
2018-04-07T09:42:03.463Z,6.77
2018-04-07T09:44:33.283Z,8.63
2018-04-07T09:47:03.052Z,8.53
2018-04-07T09:49:32.831Z,9.83
2018-04-07T09:52:02.528Z,7.13
2018-04-07T09:54:32.331Z,6.83
2018-04-07T09:57:02.073Z,6.80
2018-04-07T09:59:31.869Z,7.47
2018-04-07T10:02:01.686Z,10.13
2018-04-07T10:04:31.496Z,5.87
2018-04-07T10:07:01.264Z,6.30
2018-04-07T10:09:31.058Z,5.47
2018-04-07T10:12:00.882Z,6.83
2018-04-07T10:14:30.797Z,6.17
2018-04-07T10:17:00.825Z,6.70
2018-04-07T10:19:30.824Z,7.33
2018-04-07T10:22:00.625Z,4.93
2018-04-07T10:24:30.551Z,5.70
2018-04-07T10:27:00.490Z,5.50
2018-04-07T10:29:30.285Z,7.10
2018-04-07T10:32:00.074Z,5.60
2018-04-07T10:34:30.020Z,5.33
2018-04-07T10:36:59.801Z,5.73
2018-04-07T10:39:29.653Z,6.27
2018-04-07T10:41:59.756Z,5.63
2018-04-07T10:44:29.581Z,5.37
2018-04-07T10:46:59.452Z,5.43
2018-04-07T10:49:29.296Z,9.43
2018-04-07T10:51:59.112Z,8.87
2018-04-07T10:54:29.123Z,7.10
2018-04-07T10:56:59.061Z,8.57
2018-04-07T10:59:28.955Z,5.50
2018-04-07T11:01:58.787Z,5.03
2018-04-07T11:04:28.701Z,5.17
2018-04-07T11:06:58.601Z,6.07
2018-04-07T11:09:28.345Z,10.33
2018-04-07T11:11:58.040Z,4.83
2018-04-07T11:14:27.748Z,5.50
2018-04-07T11:16:57.508Z,5.30
2018-04-07T11:19:27.301Z,5.33
2018-04-07T11:21:57.074Z,6.50
2018-04-07T11:24:26.879Z,4.50
2018-04-07T11:26:56.632Z,4.80
2018-04-07T11:29:26.366Z,5.47
2018-04-07T11:31:56.069Z,7.07
2018-04-07T11:34:25.889Z,6.17
2018-04-07T11:36:55.660Z,4.90
2018-04-07T11:39:25.480Z,4.43
2018-04-07T11:41:55.248Z,4.33
2018-04-07T11:44:25.025Z,5.00
2018-04-07T11:46:54.857Z,7.53
2018-04-07T11:49:24.584Z,7.50
2018-04-07T11:51:54.279Z,5.27
2018-04-07T11:54:24.151Z,5.33
2018-04-07T11:56:54.149Z,5.73
2018-04-07T11:59:23.978Z,4.13
2018-04-07T12:01:53.750Z,5.37
2018-04-07T12:04:23.528Z,7.40
2018-04-07T12:06:53.377Z,4.67
2018-04-07T12:09:23.069Z,6.60
2018-04-07T12:11:52.807Z,6.43
2018-04-07T12:14:22.584Z,3.67
2018-04-07T12:16:52.419Z,6.07
2018-04-07T12:19:22.251Z,3.90
2018-04-07T12:21:52.001Z,5.50
2018-04-07T12:24:21.799Z,5.13
2018-04-07T12:26:51.636Z,5.90
2018-04-07T12:29:21.327Z,5.87
2018-04-07T12:31:51.061Z,6.37
2018-04-07T12:34:21.506Z,7.00
2018-04-07T12:36:51.358Z,4.50
2018-04-07T12:39:21.181Z,4.70
2018-04-07T12:41:50.971Z,5.70
2018-04-07T12:44:20.911Z,3.90
2018-04-07T12:46:50.764Z,4.20
2018-04-07T12:49:20.614Z,3.93
2018-04-07T12:51:50.324Z,3.67
2018-04-07T12:54:20.134Z,3.73
2018-04-07T12:56:49.909Z,6.23
2018-04-07T12:59:19.762Z,6.10
2018-04-07T13:01:49.575Z,3.50
2018-04-07T13:04:19.456Z,3.77
2018-04-07T13:06:49.322Z,11.20
2018-04-07T13:09:19.047Z,4.70
2018-04-07T13:11:48.936Z,3.43
2018-04-07T13:14:19.591Z,7.63
2018-04-07T13:16:50.391Z,4.33
2018-04-07T13:19:20.344Z,5.63
2018-04-07T13:21:50.228Z,4.20
2018-04-07T13:24:20.052Z,4.57
2018-04-07T13:26:49.970Z,5.10
2018-04-07T13:29:19.775Z,3.03
2018-04-07T13:31:49.587Z,5.07
2018-04-07T13:34:19.347Z,4.27
2018-04-07T13:36:49.106Z,6.40
2018-04-07T13:39:19.021Z,3.93
2018-04-07T13:41:48.837Z,4.20
2018-04-07T13:44:18.756Z,4.40
2018-04-07T13:46:48.566Z,5.60
2018-04-07T13:49:18.267Z,3.70
2018-04-07T13:51:47.958Z,4.90
2018-04-07T13:54:17.747Z,4.20
2018-04-07T13:56:47.561Z,3.80
2018-04-07T13:59:17.319Z,3.37
2018-04-07T14:01:47.047Z,3.83
2018-04-07T14:04:16.894Z,3.40
2018-04-07T14:06:46.640Z,3.43
2018-04-07T14:09:16.508Z,4.13
2018-04-07T14:11:46.389Z,3.73
2018-04-07T14:14:16.306Z,4.50
2018-04-07T14:16:46.237Z,3.43
2018-04-07T14:19:16.141Z,4.47
2018-04-07T14:21:46.071Z,3.67
2018-04-07T14:24:15.957Z,3.30
2018-04-07T14:26:45.878Z,4.90
2018-04-07T14:29:15.646Z,3.70
2018-04-07T14:31:45.508Z,3.87
2018-04-07T14:34:15.282Z,4.30
2018-04-07T14:36:45.146Z,5.63
2018-04-07T14:39:15.018Z,3.83
2018-04-07T14:41:44.872Z,3.40
2018-04-07T14:44:14.780Z,5.23
2018-04-07T14:46:44.683Z,3.77
2018-04-07T14:49:14.599Z,4.00
2018-04-07T14:51:44.526Z,4.27
2018-04-07T14:54:14.326Z,3.23
2018-04-07T14:56:44.253Z,6.53
2018-04-07T14:59:14.065Z,4.23
2018-04-07T15:01:44.591Z,3.63
2018-04-07T15:04:14.406Z,11.57
2018-04-07T15:06:44.312Z,5.27
2018-04-07T15:09:14.235Z,5.67
2018-04-07T15:11:44.144Z,6.63
2018-04-07T15:14:13.941Z,5.57
2018-04-07T15:16:43.708Z,6.00
2018-04-07T15:19:13.522Z,9.77
2018-04-07T15:21:43.278Z,4.67
2018-04-07T15:24:13.084Z,5.50
2018-04-07T15:26:43.021Z,5.47
2018-04-07T15:29:12.838Z,5.07
2018-04-07T15:31:42.702Z,8.17
2018-04-07T15:34:12.718Z,6.50
2018-04-07T15:36:42.684Z,6.27
2018-04-07T15:39:12.600Z,7.67
2018-04-07T15:41:42.524Z,8.70
2018-04-07T15:44:12.453Z,10.13
2018-04-07T15:46:43.169Z,6.73
2018-04-07T15:49:13.138Z,5.23
2018-04-07T15:51:43.106Z,6.70
2018-04-07T15:54:13.023Z,6.00
2018-04-07T15:56:42.954Z,5.07
2018-04-07T15:59:12.758Z,6.43
2018-04-07T16:01:42.759Z,7.30
2018-04-07T16:04:12.676Z,5.77
2018-04-07T16:06:43.205Z,9.43
2018-04-07T16:09:13.100Z,12.13
2018-04-07T16:11:42.928Z,6.20
2018-04-07T16:14:12.737Z,5.67
2018-04-07T16:16:42.474Z,5.53
2018-04-07T16:19:12.578Z,9.03
2018-04-07T16:21:42.387Z,5.27
2018-04-07T16:24:13.216Z,4.93
2018-04-07T16:26:42.907Z,8.77
2018-04-07T16:29:12.701Z,10.43
2018-04-07T16:31:42.476Z,5.23
2018-04-07T16:34:12.242Z,5.13
2018-04-07T16:36:42.140Z,7.23
2018-04-07T16:39:11.932Z,5.57
2018-04-07T16:41:41.719Z,5.37
2018-04-07T16:44:11.500Z,5.67
2018-04-07T16:46:41.288Z,5.67
2018-04-07T16:49:11.016Z,7.87
2018-04-07T16:51:40.704Z,6.60
2018-04-07T16:54:10.497Z,9.07
2018-04-07T16:56:40.286Z,8.70
2018-04-07T16:59:10.078Z,7.87
2018-04-07T17:01:39.821Z,10.20
2018-04-07T17:04:09.711Z,11.37
2018-04-07T17:06:39.513Z,10.23
2018-04-07T17:09:09.276Z,7.00
2018-04-07T17:11:38.990Z,9.80
2018-04-07T17:14:08.700Z,9.17
2018-04-07T17:16:38.487Z,7.33
2018-04-07T17:19:08.262Z,7.57
2018-04-07T17:21:44.728Z,9.97
2018-04-07T17:24:14.897Z,8.63
2018-04-07T17:26:44.797Z,6.27
2018-04-07T17:29:14.605Z,7.43
2018-04-07T17:31:44.528Z,7.93
2018-04-07T17:34:14.347Z,8.27
2018-04-07T17:36:44.361Z,7.17
2018-04-07T17:39:14.272Z,9.30
2018-04-07T17:41:44.184Z,9.03
2018-04-07T17:44:13.914Z,11.50
2018-04-07T17:46:43.646Z,9.87
2018-04-07T17:49:13.378Z,11.97
2018-04-07T17:51:43.130Z,10.20
2018-04-07T17:54:12.911Z,14.13
2018-04-07T17:56:42.670Z,12.57
2018-04-07T17:59:12.449Z,14.97
2018-04-07T18:01:42.201Z,13.67
2018-04-07T18:04:11.949Z,12.37
2018-04-07T18:06:41.765Z,17.20
2018-04-07T18:09:11.492Z,10.00
2018-04-07T18:11:41.220Z,15.80
2018-04-07T18:14:11.017Z,15.67
2018-04-07T18:16:40.756Z,11.57
2018-04-07T18:19:10.525Z,11.63
2018-04-07T18:21:40.263Z,14.23
2018-04-07T18:24:09.990Z,12.20
2018-04-07T18:26:39.781Z,11.47
2018-04-07T18:29:09.534Z,12.23
2018-04-07T18:31:39.266Z,14.70
2018-04-07T18:34:09.064Z,10.80
2018-04-07T18:36:38.800Z,10.93
2018-04-07T18:39:08.602Z,19.77
2018-04-07T18:41:38.352Z,15.17
2018-04-07T18:44:08.127Z,13.70
2018-04-07T18:46:37.980Z,16.83
2018-04-07T18:49:07.709Z,14.20
2018-04-07T18:51:37.428Z,17.70
2018-04-07T18:54:07.209Z,15.30
2018-04-07T18:56:36.941Z,17.33
2018-04-07T18:59:06.831Z,16.03
2018-04-07T19:01:36.598Z,15.43
2018-04-07T19:04:06.379Z,15.73
2018-04-07T19:06:36.134Z,14.93
2018-04-07T19:09:06.907Z,14.77
2018-04-07T19:11:36.751Z,14.23
2018-04-07T19:14:06.477Z,15.50
2018-04-07T19:16:36.235Z,15.00
2018-04-07T19:19:06.001Z,23.50
2018-04-07T19:21:35.748Z,19.97
2018-04-07T19:24:05.550Z,17.00
2018-04-07T19:26:35.274Z,15.53
2018-04-07T19:29:04.990Z,12.60
2018-04-07T19:31:34.723Z,15.53
2018-04-07T19:34:04.484Z,13.23
2018-04-07T19:36:34.287Z,15.30
2018-04-07T19:39:04.175Z,14.20
2018-04-07T19:41:33.962Z,11.67
2018-04-07T19:44:03.755Z,14.07
2018-04-07T19:46:33.554Z,14.20
2018-04-07T19:49:03.351Z,14.57
2018-04-07T19:51:33.118Z,15.83
2018-04-07T19:54:02.880Z,12.67
2018-04-07T19:56:32.655Z,14.87
2018-04-07T19:59:02.482Z,14.63
2018-04-07T20:01:32.212Z,12.97
2018-04-07T20:04:01.970Z,20.00
2018-04-07T20:06:31.758Z,14.87
2018-04-07T20:09:01.486Z,16.20
2018-04-07T20:11:31.247Z,15.83
2018-04-07T20:14:00.956Z,17.10
2018-04-07T20:16:30.717Z,20.57
2018-04-07T20:19:00.486Z,17.60
2018-04-07T20:21:30.265Z,15.87
2018-04-07T20:23:59.973Z,16.03
2018-04-07T20:26:29.724Z,16.70
2018-04-07T20:28:59.440Z,17.60
2018-04-07T20:31:29.199Z,17.93
2018-04-07T20:33:58.926Z,16.40
2018-04-07T20:36:28.659Z,18.20
2018-04-07T20:38:58.546Z,18.87
2018-04-07T20:41:28.246Z,14.87
2018-04-07T20:43:58.000Z,16.00
2018-04-07T20:46:27.845Z,15.67
2018-04-07T20:48:57.603Z,16.27
2018-04-07T20:51:27.362Z,16.80
2018-04-07T20:53:57.136Z,14.80
2018-04-07T20:56:26.902Z,18.23
2018-04-07T20:58:56.757Z,14.57
2018-04-07T21:01:26.467Z,14.97
2018-04-07T21:03:56.299Z,19.60
2018-04-07T21:06:26.084Z,19.57
2018-04-07T21:08:55.807Z,16.57
2018-04-07T21:11:25.637Z,16.00
2018-04-07T21:13:55.345Z,18.83
2018-04-07T21:16:25.197Z,17.60
2018-04-07T21:18:54.956Z,17.20
2018-04-07T21:21:24.696Z,23.77
2018-04-07T21:23:54.555Z,18.60
2018-04-07T21:26:24.349Z,17.23
2018-04-07T21:28:54.932Z,18.57
2018-04-07T21:31:25.407Z,17.37
2018-04-07T21:33:55.857Z,17.00
2018-04-07T21:36:26.327Z,19.10
2018-04-07T21:38:56.220Z,20.27
2018-04-07T21:41:25.975Z,19.10
2018-04-07T21:43:56.671Z,16.30
2018-04-07T21:46:27.412Z,17.70
2018-04-07T21:48:58.641Z,17.20
2018-04-07T21:51:28.502Z,15.97
2018-04-07T21:53:58.965Z,17.00
2018-04-07T21:56:29.372Z,21.40
2018-04-07T21:58:59.712Z,18.87
2018-04-07T22:01:30.171Z,20.20
2018-04-07T22:04:00.542Z,15.93
2018-04-07T22:06:30.834Z,19.93
2018-04-07T22:09:01.405Z,20.30
2018-04-07T22:11:31.966Z,17.47
2018-04-07T22:14:02.305Z,22.67
2018-04-07T22:16:32.568Z,21.17
2018-04-07T22:19:02.952Z,16.13
2018-04-07T22:21:33.407Z,18.47
2018-04-07T22:24:03.927Z,18.00
2018-04-07T22:26:35.421Z,18.33
2018-04-07T22:29:05.930Z,16.33
2018-04-07T22:31:36.453Z,17.83
2018-04-07T22:34:06.877Z,17.60
2018-04-07T22:36:37.326Z,19.13
2018-04-07T22:39:07.956Z,17.63
2018-04-07T22:41:38.447Z,17.53
2018-04-07T22:44:08.635Z,16.80
2018-04-07T22:46:39.154Z,16.30
2018-04-07T22:49:09.468Z,16.57
2018-04-07T22:51:40.067Z,14.50
2018-04-07T22:54:10.911Z,15.90
2018-04-07T22:56:41.424Z,15.93
2018-04-07T22:59:12.025Z,19.57
2018-04-07T23:01:42.486Z,18.97
2018-04-07T23:04:13.000Z,18.00
2018-04-07T23:06:43.597Z,27.47
2018-04-07T23:09:14.411Z,19.27
2018-04-07T23:11:45.194Z,19.30
2018-04-07T23:14:16.615Z,20.13
2018-04-07T23:16:47.010Z,20.50
2018-04-07T23:19:17.285Z,20.50
2018-04-07T23:21:47.641Z,20.23
2018-04-07T23:24:18.169Z,20.03
2018-04-07T23:26:48.667Z,20.63
2018-04-07T23:29:18.969Z,18.00
2018-04-07T23:31:49.430Z,22.20
2018-04-07T23:34:19.762Z,20.67
2018-04-07T23:36:50.236Z,21.50
2018-04-07T23:39:20.600Z,18.63
2018-04-07T23:41:50.931Z,18.97
2018-04-07T23:44:21.160Z,18.80
2018-04-07T23:46:51.450Z,18.70
2018-04-07T23:49:21.876Z,19.77
2018-04-07T23:51:52.576Z,17.50
2018-04-07T23:54:22.641Z,19.47
2018-04-07T23:56:52.969Z,18.40
2018-04-07T23:59:23.297Z,21.07
